Terminal Aerodrome Forecast
Issued by NWS Twin Cities, MN

Home | Current Version | Previous Version | Graphics & Text | Print | Product List | Glossary On
Versions: 1 2 3 4 5 6 7 8 9 10 11 12 13 14 15 16
000
FTUS43 KMPX 282344
TAFEAU
TAF
KEAU 282344Z 2900/2924 19007KT P6SM BKN015 BKN150
     FM290130 19007KT P6SM SCT150
     FM290700 12003KT 4SM BR BKN020
      TEMPO 2908/2912 1 1/2SM BR
     FM291500 09004KT P6SM SCT020=

USA.gov is the U.S. government's official web portal to all federal, state and local government web resources and services.